createdAt,value
2022-11-26T00:01:37.305Z,91.00
2022-11-26T00:04:06.731Z,83.03
2022-11-26T00:06:39.289Z,73.93
2022-11-26T00:09:17.812Z,66.05
2022-11-26T00:11:47.300Z,63.60
2022-11-26T00:14:18.678Z,73.10
2022-11-26T00:16:47.782Z,46.38
2022-11-26T00:19:16.999Z,57.40
2022-11-26T00:21:45.565Z,54.22
2022-11-26T00:24:32.594Z,60.85
2022-11-26T00:27:04.414Z,46.70
2022-11-26T00:29:33.487Z,55.45
2022-11-26T00:32:02.579Z,59.10
2022-11-26T00:34:31.432Z,44.55
2022-11-26T00:37:00.792Z,51.25
2022-11-26T00:39:31.397Z,53.35
2022-11-26T00:42:00.793Z,55.50
2022-11-26T00:44:29.552Z,52.33
2022-11-26T00:46:58.647Z,55.40
2022-11-26T00:49:28.908Z,54.78
2022-11-26T00:52:01.014Z,54.55
2022-11-26T00:54:32.634Z,59.28
2022-11-26T00:57:03.807Z,68.53
2022-11-26T00:59:32.588Z,71.20
2022-11-26T01:02:01.098Z,49.35
2022-11-26T01:04:30.036Z,52.63
2022-11-26T01:06:59.960Z,51.60
2022-11-26T01:09:29.147Z,49.70
2022-11-26T01:11:59.049Z,46.90
2022-11-26T01:14:29.055Z,49.95
2022-11-26T01:16:58.953Z,50.20
2022-11-26T01:19:28.206Z,58.20
2022-11-26T01:21:56.904Z,45.58
2022-11-26T01:24:26.167Z,48.28
2022-11-26T01:26:55.870Z,51.53
2022-11-26T01:29:26.322Z,47.13
2022-11-26T01:31:54.872Z,46.25
2022-11-26T01:34:23.571Z,60.05
2022-11-26T01:36:52.625Z,57.28
2022-11-26T01:39:24.877Z,43.63
2022-11-26T01:42:01.213Z,61.90
2022-11-26T01:44:36.131Z,68.63
2022-11-26T01:47:23.140Z,69.65
2022-11-26T01:50:43.802Z,61.67
2022-11-26T01:53:17.179Z,47.47
2022-11-26T01:55:52.240Z,51.05
2022-11-26T01:58:29.560Z,56.33
2022-11-26T02:01:00.970Z,53.63
2022-11-26T02:03:33.385Z,45.40
2022-11-26T02:06:10.056Z,59.72
2022-11-26T02:08:39.757Z,51.00
2022-11-26T02:11:21.357Z,45.83
2022-11-26T02:13:54.051Z,57.88
2022-11-26T02:16:54.195Z,39.92
2022-11-26T02:20:22.114Z,52.30
2022-11-26T02:23:42.470Z,47.50
2022-11-26T02:26:50.448Z,45.65
2022-11-26T02:29:31.210Z,54.08
2022-11-26T02:32:09.850Z,54.53
2022-11-26T02:34:48.532Z,57.03
2022-11-26T02:37:24.719Z,42.13
2022-11-26T02:39:55.361Z,72.70
2022-11-26T02:42:30.444Z,49.20
2022-11-26T02:45:04.867Z,59.35
2022-11-26T02:47:37.026Z,47.90
2022-11-26T02:50:11.757Z,49.00
2022-11-26T02:52:43.925Z,62.80
2022-11-26T02:55:17.257Z,61.80
2022-11-26T02:57:50.032Z,65.60
2022-11-26T03:00:21.073Z,64.50
2022-11-26T03:02:59.683Z,49.25
2022-11-26T03:05:32.470Z,39.45
2022-11-26T03:08:02.968Z,47.10
2022-11-26T03:10:36.563Z,59.90
2022-11-26T03:13:05.597Z,64.88
2022-11-26T03:15:34.642Z,53.72
2022-11-26T03:18:06.236Z,54.55
2022-11-26T03:20:35.257Z,54.45
2022-11-26T03:23:04.055Z,66.95
2022-11-26T03:25:33.404Z,64.95
2022-11-26T03:28:02.551Z,58.78
2022-11-26T03:30:33.246Z,62.13
2022-11-26T03:33:01.791Z,68.72
2022-11-26T03:35:32.038Z,61.53
2022-11-26T03:38:05.003Z,49.88
2022-11-26T03:40:34.633Z,49.45
2022-11-26T03:43:03.410Z,45.40
2022-11-26T03:45:32.192Z,77.97
2022-11-26T03:48:04.182Z,70.80
2022-11-26T03:50:35.311Z,73.03
2022-11-26T03:53:04.508Z,52.72
2022-11-26T03:55:33.546Z,57.33
2022-11-26T03:58:05.643Z,61.08
2022-11-26T04:00:34.982Z,56.90
2022-11-26T04:03:03.775Z,64.78
2022-11-26T04:05:33.467Z,59.58
2022-11-26T04:08:04.384Z,60.17
2022-11-26T04:10:34.283Z,59.60
2022-11-26T04:13:04.306Z,70.30
2022-11-26T04:15:32.939Z,59.03
2022-11-26T04:18:02.054Z,58.58
2022-11-26T04:20:31.044Z,61.65
2022-11-26T04:23:00.187Z,52.25
2022-11-26T04:25:30.399Z,61.38
2022-11-26T04:27:58.990Z,51.38
2022-11-26T04:30:30.105Z,58.88
2022-11-26T04:32:59.820Z,61.97
2022-11-26T04:35:29.237Z,66.05
2022-11-26T04:37:58.124Z,63.72
2022-11-26T04:40:27.542Z,72.75
2022-11-26T04:42:57.867Z,65.28
2022-11-26T04:45:27.306Z,56.85
2022-11-26T04:47:57.430Z,67.72
2022-11-26T04:50:26.548Z,72.50
2022-11-26T04:52:55.354Z,74.97
2022-11-26T04:55:27.044Z,71.07
2022-11-26T04:57:58.897Z,60.97
2022-11-26T05:00:28.476Z,67.53
2022-11-26T05:02:57.941Z,68.00
2022-11-26T05:05:26.996Z,71.38
2022-11-26T05:07:56.235Z,78.85
2022-11-26T05:10:25.505Z,91.60
2022-11-26T05:12:54.517Z,68.55
2022-11-26T05:15:25.398Z,70.72
2022-11-26T05:17:54.131Z,76.10
2022-11-26T05:20:23.128Z,70.18
2022-11-26T05:22:53.311Z,63.55
2022-11-26T05:25:22.372Z,74.07
2022-11-26T05:27:51.427Z,73.72
2022-11-26T05:30:21.320Z,72.65
2022-11-26T05:32:52.132Z,70.78
2022-11-26T05:35:21.437Z,71.18
2022-11-26T05:37:50.348Z,80.63
2022-11-26T05:40:19.771Z,69.30
2022-11-26T05:42:48.948Z,75.40
2022-11-26T05:45:20.710Z,59.03
2022-11-26T05:47:51.358Z,75.43
2022-11-26T05:50:20.734Z,73.88
2022-11-26T05:52:51.140Z,87.88
2022-11-26T05:55:22.169Z,66.25
2022-11-26T05:57:51.491Z,84.78
2022-11-26T06:00:22.638Z,75.05
2022-11-26T06:02:55.369Z,74.88
2022-11-26T06:05:25.573Z,76.57
2022-11-26T06:07:54.215Z,87.68
2022-11-26T06:10:23.077Z,77.22
2022-11-26T06:12:52.405Z,73.30
2022-11-26T06:15:21.299Z,72.15
2022-11-26T06:17:50.468Z,79.95
2022-11-26T06:20:23.813Z,66.10
2022-11-26T06:22:53.127Z,72.40
2022-11-26T06:25:24.516Z,76.38
2022-11-26T06:27:54.283Z,78.55
2022-11-26T06:30:23.618Z,78.88
2022-11-26T06:32:54.151Z,84.35
2022-11-26T06:35:27.254Z,73.78
2022-11-26T06:37:55.604Z,76.25
2022-11-26T06:40:24.094Z,72.40
2022-11-26T06:42:57.827Z,77.43
2022-11-26T06:45:27.212Z,95.22
2022-11-26T06:47:56.077Z,81.80
2022-11-26T06:50:26.923Z,88.50
2022-11-26T06:52:56.952Z,92.63
2022-11-26T06:55:26.255Z,81.63
2022-11-26T06:57:55.078Z,85.90
2022-11-26T07:00:31.540Z,94.72
2022-11-26T07:03:01.455Z,75.22
2022-11-26T07:05:31.471Z,85.35
2022-11-26T07:08:00.534Z,89.40
2022-11-26T07:10:30.126Z,85.72
2022-11-26T07:13:01.090Z,102.15
2022-11-26T07:18:39.708Z,110.10
2022-11-26T07:21:19.148Z,101.60
2022-11-26T07:26:37.600Z,86.32
2022-11-26T07:29:07.575Z,101.65
2022-11-26T07:31:37.849Z,91.97
2022-11-26T07:34:07.743Z,98.40
2022-11-26T07:36:43.727Z,96.70
2022-11-26T07:39:15.653Z,101.80
2022-11-26T07:41:45.473Z,98.38
2022-11-26T07:44:15.576Z,106.82
2022-11-26T07:46:44.517Z,112.75
2022-11-26T07:49:18.185Z,110.75
2022-11-26T07:51:49.040Z,102.35
2022-11-26T07:54:17.761Z,105.00
2022-11-26T07:56:46.709Z,103.90
2022-11-26T07:59:15.414Z,98.93
2022-11-26T08:01:44.884Z,118.13
2022-11-26T08:04:15.473Z,97.45
2022-11-26T08:06:45.903Z,124.80
2022-11-26T08:09:16.987Z,107.38
2022-11-26T08:11:46.120Z,114.80
2022-11-26T08:14:17.556Z,106.75
2022-11-26T08:16:57.447Z,107.55
2022-11-26T08:19:29.252Z,111.57
2022-11-26T08:25:00.623Z,118.32
2022-11-26T08:27:29.613Z,107.18
2022-11-26T08:29:59.391Z,97.60
2022-11-26T08:32:28.442Z,118.53
2022-11-26T08:34:57.177Z,94.88
2022-11-26T08:37:26.701Z,82.32
2022-11-26T08:39:55.221Z,95.63
2022-11-26T08:42:25.404Z,97.00
2022-11-26T08:44:54.882Z,101.85
2022-11-26T08:47:24.084Z,95.53
2022-11-26T08:49:52.889Z,90.80
2022-11-26T08:52:22.074Z,82.28
2022-11-26T08:54:50.862Z,88.03
2022-11-26T08:57:20.528Z,83.05
2022-11-26T08:59:54.918Z,77.78
2022-11-26T09:02:24.026Z,92.70
2022-11-26T09:04:53.107Z,79.50
2022-11-26T09:07:22.049Z,74.05
2022-11-26T09:09:50.808Z,81.43
2022-11-26T09:12:20.202Z,72.18
2022-11-26T09:14:50.839Z,83.45
2022-11-26T09:17:21.100Z,68.88
2022-11-26T09:19:50.001Z,86.93
2022-11-26T09:22:21.130Z,80.20
2022-11-26T09:24:49.851Z,89.15
2022-11-26T09:27:19.249Z,90.65
2022-11-26T09:29:51.558Z,66.50
2022-11-26T09:32:26.206Z,79.78
2022-11-26T09:34:58.135Z,68.03
2022-11-26T09:37:29.335Z,68.63
2022-11-26T09:40:00.358Z,68.93
2022-11-26T09:42:51.103Z,69.50
2022-11-26T09:45:37.056Z,71.72
2022-11-26T09:48:14.092Z,79.22
2022-11-26T09:50:44.695Z,70.72
2022-11-26T09:53:19.498Z,74.57
2022-11-26T09:55:53.997Z,68.60
2022-11-26T09:58:31.258Z,66.47
2022-11-26T10:01:05.079Z,66.13
2022-11-26T10:03:36.991Z,68.63
2022-11-26T10:06:11.543Z,58.97
2022-11-26T10:09:33.122Z,72.72
2022-11-26T10:12:24.955Z,63.10
2022-11-26T10:15:12.612Z,53.47
2022-11-26T10:17:56.834Z,53.65
2022-11-26T10:20:55.146Z,53.83
2022-11-26T10:23:33.206Z,55.72
2022-11-26T10:26:15.661Z,45.92
2022-11-26T10:28:49.331Z,50.58
2022-11-26T10:31:23.840Z,61.05
2022-11-26T10:34:02.852Z,55.63
2022-11-26T10:36:39.833Z,54.13
2022-11-26T10:39:15.578Z,56.35
2022-11-26T10:41:44.823Z,41.10
2022-11-26T10:44:41.555Z,49.05
2022-11-26T10:47:30.512Z,51.97
2022-11-26T10:53:25.818Z,57.17
2022-11-26T10:55:59.233Z,59.60
2022-11-26T10:58:32.145Z,55.05
2022-11-26T11:01:05.139Z,52.17
2022-11-26T11:06:43.122Z,50.75
2022-11-26T11:09:34.624Z,40.15
2022-11-26T11:12:23.840Z,45.45
2022-11-26T11:14:55.366Z,32.58
2022-11-26T11:17:35.822Z,37.80
2022-11-26T11:20:52.807Z,39.63
2022-11-26T11:23:52.367Z,44.15
2022-11-26T11:26:23.615Z,41.70
2022-11-26T11:28:55.897Z,38.97
2022-11-26T11:31:29.419Z,35.00
2022-11-26T11:34:16.772Z,42.15
2022-11-26T11:37:01.855Z,26.92
2022-11-26T11:39:35.446Z,33.70
2022-11-26T11:42:17.632Z,34.42
2022-11-26T11:44:49.425Z,31.67
2022-11-26T11:47:39.102Z,33.42
2022-11-26T11:50:22.040Z,35.35
2022-11-26T11:53:21.889Z,30.85
2022-11-26T11:56:11.518Z,33.22
2022-11-26T12:00:11.333Z,29.58
2022-11-26T12:03:12.863Z,33.03
2022-11-26T12:06:17.430Z,32.58
2022-11-26T12:09:03.266Z,37.90
2022-11-26T12:14:19.329Z,31.83
2022-11-26T12:16:55.160Z,33.08
2022-11-26T12:19:36.329Z,30.73
2022-11-26T12:22:11.962Z,34.28
2022-11-26T12:24:51.452Z,36.40
2022-11-26T12:27:33.400Z,35.55
2022-11-26T12:30:09.230Z,38.53
2022-11-26T12:32:46.527Z,39.30
2022-11-26T12:35:33.547Z,33.05
2022-11-26T12:38:11.475Z,38.13
2022-11-26T12:40:47.111Z,28.67
2022-11-26T12:43:27.066Z,31.25
2022-11-26T12:46:06.242Z,30.08
2022-11-26T12:48:45.502Z,31.50
2022-11-26T12:51:32.621Z,37.28
2022-11-26T12:54:13.076Z,43.88
2022-11-26T12:56:50.190Z,36.30
2022-11-26T12:59:27.769Z,34.80
2022-11-26T13:01:58.967Z,39.67
2022-11-26T13:04:37.741Z,29.83
2022-11-26T13:07:23.286Z,40.45
2022-11-26T13:10:07.180Z,35.67
2022-11-26T13:12:46.787Z,39.03
2022-11-26T13:15:26.513Z,33.25
2022-11-26T13:18:00.827Z,32.47
2022-11-26T13:20:52.699Z,30.55
2022-11-26T13:23:41.691Z,33.15
2022-11-26T13:26:26.444Z,29.65
2022-11-26T13:29:14.995Z,34.20
2022-11-26T13:32:12.750Z,36.20
2022-11-26T13:35:05.308Z,27.60
2022-11-26T13:38:14.746Z,31.52
2022-11-26T13:41:10.972Z,31.05
2022-11-26T13:46:56.863Z,29.95
2022-11-26T13:49:36.426Z,28.95
2022-11-26T13:52:11.303Z,34.75
2022-11-26T13:54:47.650Z,25.77
2022-11-26T13:57:19.639Z,27.35
2022-11-26T13:59:53.965Z,33.25
2022-11-26T14:02:46.740Z,30.98
2022-11-26T14:05:18.351Z,26.10
2022-11-26T14:07:52.142Z,25.85
2022-11-26T14:10:47.345Z,26.52
2022-11-26T14:13:18.200Z,30.75
2022-11-26T14:15:59.767Z,33.60
2022-11-26T14:19:00.590Z,34.80
2022-11-26T14:21:32.355Z,31.48
2022-11-26T14:24:02.300Z,32.28
2022-11-26T14:26:37.689Z,22.33
2022-11-26T14:31:52.488Z,27.98
2022-11-26T14:34:33.917Z,28.40
2022-11-26T14:37:05.947Z,29.33
2022-11-26T14:39:34.942Z,30.42
2022-11-26T14:42:06.317Z,23.23
2022-11-26T14:44:35.621Z,30.73
2022-11-26T14:47:17.597Z,38.70
2022-11-26T14:49:55.689Z,28.42
2022-11-26T14:52:29.527Z,29.30
2022-11-26T14:55:02.281Z,32.00
2022-11-26T14:57:41.243Z,32.50
2022-11-26T15:00:26.482Z,31.65
2022-11-26T15:02:56.786Z,27.45
2022-11-26T15:05:36.991Z,32.83
2022-11-26T15:08:17.350Z,32.20
2022-11-26T15:10:56.992Z,37.22
2022-11-26T15:13:32.496Z,30.80
2022-11-26T15:18:36.228Z,29.65
2022-11-26T15:21:24.078Z,30.42
2022-11-26T15:23:55.407Z,32.38
2022-11-26T15:26:29.639Z,37.20
2022-11-26T15:28:59.894Z,34.42
2022-11-26T15:31:42.189Z,35.22
2022-11-26T15:34:14.655Z,28.88
2022-11-26T15:36:46.698Z,38.58
2022-11-26T15:39:31.164Z,27.38
2022-11-26T15:42:08.233Z,35.33
2022-11-26T15:44:44.211Z,36.83
2022-11-26T15:49:54.454Z,38.22
2022-11-26T15:52:31.162Z,49.33
2022-11-26T15:55:13.135Z,35.35
2022-11-26T15:57:43.637Z,30.42
2022-11-26T16:00:24.803Z,41.75
2022-11-26T16:03:08.133Z,36.75
2022-11-26T16:05:39.991Z,41.88
2022-11-26T16:14:41.013Z,61.55
2022-11-26T16:17:15.706Z,44.58
2022-11-26T16:19:55.357Z,41.60
2022-11-26T16:22:32.343Z,45.05
2022-11-26T16:25:20.817Z,42.20
2022-11-26T16:28:07.601Z,44.78
2022-11-26T16:30:39.485Z,36.85
2022-11-26T16:33:09.783Z,53.38
2022-11-26T16:35:46.968Z,46.17
2022-11-26T16:38:23.177Z,34.08
2022-11-26T16:40:54.081Z,42.15
2022-11-26T16:43:25.600Z,46.72
2022-11-26T16:45:58.516Z,39.53
2022-11-26T16:48:33.512Z,30.05
2022-11-26T16:51:04.953Z,49.58
2022-11-26T16:53:34.007Z,35.97
2022-11-26T16:56:06.722Z,34.75
2022-11-26T16:58:41.763Z,31.20
2022-11-26T17:01:11.312Z,41.17
2022-11-26T17:03:44.004Z,33.65
2022-11-26T17:06:17.170Z,43.85
2022-11-26T17:11:39.285Z,32.45
2022-11-26T17:14:11.421Z,34.05
2022-11-26T17:16:43.444Z,39.15
2022-11-26T17:19:18.012Z,35.95
2022-11-26T17:21:47.859Z,34.83
2022-11-26T17:24:20.736Z,38.78
2022-11-26T17:26:55.165Z,41.38
2022-11-26T17:29:28.248Z,30.30
2022-11-26T17:32:03.813Z,36.15
2022-11-26T17:34:34.117Z,33.17
2022-11-26T17:37:24.239Z,30.27
2022-11-26T17:42:37.853Z,40.67
2022-11-26T17:45:08.390Z,28.02
2022-11-26T17:47:37.009Z,35.60
2022-11-26T17:50:09.367Z,43.22
2022-11-26T17:52:38.634Z,29.20
2022-11-26T17:55:08.973Z,31.88
2022-11-26T17:57:43.008Z,40.38
2022-11-26T18:00:17.174Z,36.85
2022-11-26T18:02:49.766Z,33.25
2022-11-26T18:05:21.552Z,30.02
2022-11-26T18:07:54.172Z,33.20
2022-11-26T18:10:25.135Z,33.33
2022-11-26T18:12:56.689Z,39.53
2022-11-26T18:15:29.088Z,38.55
2022-11-26T18:17:57.947Z,35.28
2022-11-26T18:20:30.476Z,37.10
2022-11-26T18:23:04.153Z,35.15
2022-11-26T18:25:36.914Z,26.13
2022-11-26T18:28:10.769Z,33.58
2022-11-26T18:30:39.287Z,36.60
2022-11-26T18:33:08.346Z,41.85
2022-11-26T18:35:39.243Z,40.47
2022-11-26T18:38:11.641Z,37.45
2022-11-26T18:40:41.134Z,41.22
2022-11-26T18:43:11.558Z,49.40
2022-11-26T18:45:43.896Z,41.00
2022-11-26T18:48:13.388Z,40.40
2022-11-26T18:50:42.902Z,38.17
2022-11-26T18:53:13.751Z,37.92
2022-11-26T18:55:45.225Z,35.03
2022-11-26T18:58:19.085Z,34.58
2022-11-26T19:00:49.352Z,32.05
2022-11-26T19:03:19.797Z,44.05
2022-11-26T19:05:53.268Z,43.78
2022-11-26T19:08:25.702Z,33.75
2022-11-26T19:10:54.640Z,44.60
2022-11-26T19:13:26.075Z,33.63
2022-11-26T19:15:54.908Z,29.45
2022-11-26T19:18:24.844Z,45.58
2022-11-26T19:20:55.919Z,31.83
2022-11-26T19:23:28.467Z,44.70
2022-11-26T19:25:58.835Z,44.05
2022-11-26T19:28:31.496Z,35.85
2022-11-26T19:31:03.466Z,42.25
2022-11-26T19:33:33.540Z,34.55
2022-11-26T19:36:06.871Z,36.95
2022-11-26T19:38:36.796Z,41.20
2022-11-26T19:41:08.363Z,35.33
2022-11-26T19:43:44.076Z,34.88
2022-11-26T19:46:20.065Z,37.28
2022-11-26T19:48:52.324Z,48.38
2022-11-26T19:51:29.122Z,32.92
2022-11-26T19:53:59.192Z,31.83
2022-11-26T19:56:33.117Z,41.78
2022-11-26T19:59:09.453Z,37.05
2022-11-26T20:01:50.151Z,40.13
2022-11-26T20:04:27.644Z,37.75
2022-11-26T20:07:10.614Z,46.05
2022-11-26T20:09:48.629Z,35.60
2022-11-26T20:15:34.331Z,33.42
2022-11-26T20:18:09.725Z,43.45
2022-11-26T20:20:39.544Z,33.38
2022-11-26T20:23:09.953Z,42.40
2022-11-26T20:25:51.459Z,43.28
2022-11-26T20:28:25.599Z,36.25
2022-11-26T20:30:57.327Z,40.72
2022-11-26T20:33:31.901Z,33.63
2022-11-26T20:36:02.869Z,39.97
2022-11-26T20:38:34.372Z,37.35
2022-11-26T20:41:14.176Z,45.97
2022-11-26T20:44:16.502Z,43.42
2022-11-26T20:46:56.681Z,36.10
2022-11-26T20:49:37.795Z,36.50
2022-11-26T20:52:13.061Z,42.78
2022-11-26T20:54:43.798Z,46.75
2022-11-26T20:57:25.296Z,37.85
2022-11-26T20:59:58.396Z,43.75
2022-11-26T21:02:31.319Z,42.30
2022-11-26T21:05:12.345Z,39.60
2022-11-26T21:07:51.150Z,35.65
2022-11-26T21:10:25.460Z,49.97
2022-11-26T21:12:56.062Z,42.25
2022-11-26T21:15:26.334Z,35.22
2022-11-26T21:17:59.589Z,40.65
2022-11-26T21:20:35.971Z,31.35
2022-11-26T21:23:07.048Z,42.40
2022-11-26T21:25:45.668Z,41.90
2022-11-26T21:28:18.338Z,37.58
2022-11-26T21:30:48.333Z,35.17
2022-11-26T21:33:18.789Z,38.35
2022-11-26T21:35:47.129Z,30.73
2022-11-26T21:38:23.819Z,43.50
2022-11-26T21:40:55.461Z,39.30
2022-11-26T21:43:27.340Z,49.47
2022-11-26T21:46:02.194Z,38.08
2022-11-26T21:48:36.719Z,41.72
2022-11-26T21:51:08.880Z,42.33
2022-11-26T21:53:37.617Z,33.85
2022-11-26T21:56:17.387Z,36.20
2022-11-26T21:58:46.688Z,52.95
2022-11-26T22:01:19.633Z,42.13
2022-11-26T22:03:54.165Z,43.95
2022-11-26T22:06:25.894Z,43.30
2022-11-26T22:08:55.961Z,31.05
2022-11-26T22:11:28.736Z,37.58
2022-11-26T22:13:57.375Z,29.50
2022-11-26T22:16:30.817Z,47.75
2022-11-26T22:19:03.736Z,38.65
2022-11-26T22:21:37.954Z,36.80
2022-11-26T22:24:09.271Z,43.40
2022-11-26T22:26:38.680Z,40.85
2022-11-26T22:29:08.285Z,32.85
2022-11-26T22:31:39.711Z,27.15
2022-11-26T22:34:13.133Z,24.73
2022-11-26T22:36:45.431Z,28.63
2022-11-26T22:39:19.403Z,31.20
2022-11-26T22:41:50.145Z,28.25
2022-11-26T22:44:20.190Z,37.58
2022-11-26T22:46:49.768Z,26.10
2022-11-26T22:49:22.970Z,31.15
2022-11-26T22:51:52.125Z,31.98
2022-11-26T22:54:21.462Z,40.20
2022-11-26T22:56:51.762Z,32.78
2022-11-26T22:59:27.740Z,28.42
2022-11-26T23:01:57.566Z,31.52
2022-11-26T23:04:29.107Z,35.17
2022-11-26T23:06:57.853Z,34.40
2022-11-26T23:09:30.475Z,23.55
2022-11-26T23:11:59.849Z,25.65
2022-11-26T23:14:29.159Z,39.92
2022-11-26T23:16:59.951Z,33.08
2022-11-26T23:19:30.693Z,25.55
2022-11-26T23:21:59.062Z,36.95
2022-11-26T23:24:30.037Z,31.88
2022-11-26T23:26:58.456Z,32.92
2022-11-26T23:29:27.980Z,32.70
2022-11-26T23:31:59.481Z,35.08
2022-11-26T23:34:29.768Z,23.23
2022-11-26T23:36:58.665Z,31.58
2022-11-26T23:39:27.848Z,28.35
2022-11-26T23:41:56.784Z,37.05
2022-11-26T23:44:26.457Z,34.17
2022-11-26T23:46:55.097Z,44.30
2022-11-26T23:49:27.930Z,23.65
2022-11-26T23:51:58.656Z,30.35
2022-11-26T23:54:28.665Z,34.95
2022-11-26T23:56:58.100Z,28.17
2022-11-26T23:59:26.893Z,39.55
